createdAt,value
2017-10-18T00:00:11.967Z,16.80
2017-10-18T00:01:11.962Z,17.10
2017-10-18T00:02:11.960Z,17.20
2017-10-18T00:03:11.949Z,18.70
2017-10-18T00:04:11.946Z,17.00
2017-10-18T00:05:11.941Z,16.90
2017-10-18T00:06:11.939Z,16.80
2017-10-18T00:07:11.931Z,17.80
2017-10-18T00:08:11.925Z,16.30
2017-10-18T00:09:11.924Z,17.60
2017-10-18T00:10:11.916Z,16.10
2017-10-18T00:11:11.914Z,17.60
2017-10-18T00:12:11.907Z,17.70
2017-10-18T00:13:11.899Z,16.40
2017-10-18T00:14:11.896Z,17.50
2017-10-18T00:15:11.890Z,16.70
2017-10-18T00:16:11.884Z,18.30
2017-10-18T00:17:11.877Z,18.00
2017-10-18T00:18:11.876Z,16.80
2017-10-18T00:19:11.867Z,17.70
2017-10-18T00:20:11.864Z,17.40
2017-10-18T00:21:11.857Z,16.60
2017-10-18T00:22:11.854Z,17.80
2017-10-18T00:23:11.850Z,17.40
2017-10-18T00:24:11.846Z,17.20
2017-10-18T00:25:11.839Z,17.80
2017-10-18T00:26:11.832Z,18.10
2017-10-18T00:27:11.829Z,18.40
2017-10-18T00:28:11.825Z,18.00
2017-10-18T00:29:11.828Z,17.50
2017-10-18T00:30:11.812Z,17.80
2017-10-18T00:31:11.821Z,19.50
2017-10-18T00:32:11.808Z,17.60
2017-10-18T00:33:11.810Z,18.40
2017-10-18T00:34:11.803Z,18.10
2017-10-18T00:35:11.798Z,17.50
2017-10-18T00:36:11.791Z,16.80
2017-10-18T00:37:11.779Z,17.10
2017-10-18T00:38:11.776Z,18.20
2017-10-18T00:39:11.769Z,17.30
2017-10-18T00:40:11.769Z,18.10
2017-10-18T00:41:11.760Z,18.30
2017-10-18T00:42:11.753Z,17.90
2017-10-18T00:43:11.750Z,17.50
2017-10-18T00:44:11.745Z,17.70
2017-10-18T00:45:11.738Z,17.10
2017-10-18T00:46:11.734Z,16.50
2017-10-18T00:47:11.729Z,15.80
2017-10-18T00:48:11.728Z,17.60
2017-10-18T00:49:11.717Z,16.90
2017-10-18T00:50:11.711Z,16.70
2017-10-18T00:51:11.711Z,17.00
2017-10-18T00:52:11.709Z,17.70
2017-10-18T00:53:11.708Z,16.50
2017-10-18T00:54:11.694Z,16.40
2017-10-18T00:55:11.695Z,15.70
2017-10-18T00:56:11.683Z,16.20
2017-10-18T00:57:11.677Z,16.90
2017-10-18T00:58:11.669Z,16.00
2017-10-18T00:59:11.666Z,17.10
2017-10-18T01:00:11.658Z,17.50
2017-10-18T01:01:11.656Z,17.40
2017-10-18T01:02:11.669Z,16.90
2017-10-18T01:03:11.643Z,16.60
2017-10-18T01:04:11.646Z,16.50
2017-10-18T01:05:11.631Z,17.30
2017-10-18T01:06:11.635Z,18.50
2017-10-18T01:07:11.621Z,16.90
2017-10-18T01:08:11.615Z,16.30
2017-10-18T01:09:11.619Z,16.30
2017-10-18T01:10:11.606Z,17.40
2017-10-18T01:11:11.599Z,17.00
2017-10-18T01:12:11.595Z,18.10
2017-10-18T01:13:11.613Z,17.10
2017-10-18T01:14:11.591Z,16.90
2017-10-18T01:15:11.576Z,17.20
2017-10-18T01:16:11.574Z,17.20
2017-10-18T01:17:11.568Z,17.00
2017-10-18T01:18:11.566Z,15.80
2017-10-18T01:19:11.558Z,17.40
2017-10-18T01:20:11.554Z,17.40
2017-10-18T01:21:11.550Z,17.10
2017-10-18T01:22:11.544Z,17.20
2017-10-18T01:23:11.532Z,17.00
2017-10-18T01:24:11.530Z,16.30
2017-10-18T01:25:11.524Z,16.70
2017-10-18T01:26:11.521Z,16.30
2017-10-18T01:27:18.744Z,15.60
2017-10-18T01:28:11.509Z,16.00
2017-10-18T01:29:11.513Z,17.00
2017-10-18T01:30:11.502Z,15.80
2017-10-18T01:31:11.490Z,16.20
2017-10-18T01:32:11.493Z,16.50
2017-10-18T01:33:11.486Z,15.80
2017-10-18T01:34:11.478Z,16.00
2017-10-18T01:35:11.473Z,16.30
2017-10-18T01:36:11.464Z,15.30
2017-10-18T01:37:11.458Z,16.00
2017-10-18T01:38:11.451Z,16.10
2017-10-18T01:39:11.446Z,17.30
2017-10-18T01:40:11.445Z,16.40
2017-10-18T01:41:11.440Z,16.20
2017-10-18T01:42:11.432Z,16.80
2017-10-18T01:43:11.426Z,16.50
2017-10-18T01:44:11.421Z,16.20
2017-10-18T01:45:11.415Z,16.40
2017-10-18T01:46:11.409Z,15.30
2017-10-18T01:47:11.403Z,16.50
2017-10-18T01:48:11.396Z,15.00
2017-10-18T01:49:11.394Z,16.30
2017-10-18T01:50:11.388Z,15.30
2017-10-18T01:51:11.380Z,15.50
2017-10-18T01:52:11.377Z,15.20
2017-10-18T01:53:11.370Z,15.50
2017-10-18T01:54:11.367Z,16.10
2017-10-18T01:55:11.349Z,17.00
2017-10-18T01:56:11.352Z,16.70
2017-10-18T01:57:11.348Z,16.20
2017-10-18T01:58:11.344Z,15.70
2017-10-18T01:59:11.339Z,16.70
2017-10-18T02:00:11.331Z,16.60
2017-10-18T02:01:11.327Z,16.80
2017-10-18T02:02:11.321Z,16.50
2017-10-18T02:03:11.316Z,16.00
2017-10-18T02:04:11.308Z,14.90
2017-10-18T02:05:11.302Z,14.40
2017-10-18T02:06:11.301Z,13.70
2017-10-18T02:07:11.290Z,14.20
2017-10-18T02:08:11.282Z,15.60
2017-10-18T02:09:11.276Z,15.10
2017-10-18T02:10:11.274Z,14.90
2017-10-18T02:11:11.269Z,15.10
2017-10-18T02:12:11.262Z,16.40
2017-10-18T02:13:11.256Z,15.70
2017-10-18T02:14:11.250Z,15.00
2017-10-18T02:15:11.244Z,15.50
2017-10-18T02:16:11.241Z,16.80
2017-10-18T02:17:11.234Z,16.00
2017-10-18T02:18:11.225Z,16.10
2017-10-18T02:19:11.226Z,16.00
2017-10-18T02:20:11.213Z,15.50
2017-10-18T02:21:11.211Z,16.40
2017-10-18T02:22:11.206Z,15.90
2017-10-18T02:23:11.202Z,16.10
2017-10-18T02:24:11.194Z,17.00
2017-10-18T02:25:11.186Z,16.70
2017-10-18T02:26:11.181Z,17.20
2017-10-18T02:27:11.176Z,18.00
2017-10-18T02:28:11.172Z,18.10
2017-10-18T02:29:11.165Z,17.70
2017-10-18T02:30:11.157Z,17.20
2017-10-18T02:31:11.151Z,17.90
2017-10-18T02:32:11.141Z,18.30
2017-10-18T02:33:11.142Z,18.30
2017-10-18T02:34:11.138Z,17.70
2017-10-18T02:35:11.131Z,18.00
2017-10-18T02:36:11.123Z,16.50
2017-10-18T02:37:11.115Z,16.80
2017-10-18T02:38:11.112Z,17.30
2017-10-18T02:39:11.107Z,17.50
2017-10-18T02:40:11.104Z,15.90
2017-10-18T02:41:11.097Z,17.00
2017-10-18T02:42:11.090Z,15.30
2017-10-18T02:43:11.081Z,15.60
2017-10-18T02:44:11.078Z,16.40
2017-10-18T02:45:11.077Z,15.30
2017-10-18T02:46:11.067Z,16.20
2017-10-18T02:47:11.058Z,16.90
2017-10-18T02:48:11.054Z,16.60
2017-10-18T02:49:11.062Z,19.30
2017-10-18T02:50:11.042Z,18.40
2017-10-18T02:51:11.036Z,18.20
2017-10-18T02:52:11.030Z,16.00
2017-10-18T02:53:11.021Z,17.70
2017-10-18T02:54:11.025Z,17.50
2017-10-18T02:55:11.009Z,18.40
2017-10-18T02:56:11.010Z,15.80
2017-10-18T02:57:10.999Z,17.40
2017-10-18T02:58:10.992Z,17.30
2017-10-18T02:59:10.988Z,17.40
2017-10-18T03:00:10.981Z,16.90
2017-10-18T03:01:10.976Z,17.70
2017-10-18T03:02:10.968Z,19.60
2017-10-18T03:03:10.966Z,19.20
2017-10-18T03:04:10.957Z,19.30
2017-10-18T03:05:10.954Z,18.00
2017-10-18T03:06:10.944Z,17.50
2017-10-18T03:07:10.937Z,18.30
2017-10-18T03:08:10.930Z,17.80
2017-10-18T03:09:10.928Z,16.90
2017-10-18T03:10:10.921Z,20.90
2017-10-18T03:11:10.915Z,19.10
2017-10-18T03:12:10.906Z,19.40
2017-10-18T03:13:10.905Z,19.70
2017-10-18T03:14:10.897Z,18.90
2017-10-18T03:15:10.899Z,18.60
2017-10-18T03:16:10.887Z,19.00
2017-10-18T03:17:10.880Z,20.20
2017-10-18T03:18:10.875Z,20.30
2017-10-18T03:19:10.868Z,20.30
2017-10-18T03:20:10.865Z,19.90
2017-10-18T03:21:10.858Z,20.30
2017-10-18T03:22:10.854Z,22.10
2017-10-18T03:23:10.852Z,20.20
2017-10-18T03:24:10.842Z,19.00
2017-10-18T03:25:10.834Z,19.30
2017-10-18T03:26:10.839Z,21.70
2017-10-18T03:27:10.820Z,18.70
2017-10-18T03:28:10.817Z,19.00
2017-10-18T03:29:10.809Z,17.70
2017-10-18T03:30:10.806Z,18.60
2017-10-18T03:31:10.801Z,23.00
2017-10-18T03:32:10.793Z,19.50
2017-10-18T03:33:10.788Z,18.60
2017-10-18T03:34:10.784Z,17.60
2017-10-18T03:35:10.774Z,18.10
2017-10-18T03:36:10.768Z,18.40
2017-10-18T03:37:10.768Z,19.10
2017-10-18T03:38:10.761Z,19.40
2017-10-18T03:39:10.754Z,19.00
2017-10-18T03:40:10.749Z,19.00
2017-10-18T03:41:10.750Z,20.90
2017-10-18T03:42:10.737Z,18.20
2017-10-18T03:43:10.734Z,19.10
2017-10-18T03:44:10.728Z,18.00
2017-10-18T03:45:10.718Z,21.40
2017-10-18T03:46:10.716Z,19.80
2017-10-18T03:47:10.708Z,22.10
2017-10-18T03:48:10.707Z,17.40
2017-10-18T03:49:10.700Z,16.40
2017-10-18T03:50:10.710Z,18.50
2017-10-18T03:51:10.687Z,17.50
2017-10-18T03:52:10.682Z,17.80
2017-10-18T03:53:10.675Z,17.70
2017-10-18T03:54:10.670Z,18.80
2017-10-18T03:55:10.663Z,19.40
2017-10-18T03:56:10.657Z,19.10
2017-10-18T03:57:10.650Z,19.00
2017-10-18T03:58:10.648Z,19.10
2017-10-18T03:59:10.655Z,19.30
2017-10-18T04:00:10.635Z,18.70
2017-10-18T04:01:10.629Z,20.70
2017-10-18T04:02:10.619Z,18.90
2017-10-18T04:03:10.618Z,18.90
2017-10-18T04:04:10.614Z,17.40
2017-10-18T04:05:10.610Z,19.30
2017-10-18T04:06:10.602Z,19.80
2017-10-18T04:07:10.593Z,18.90
2017-10-18T04:08:10.590Z,20.30
2017-10-18T04:09:10.589Z,20.50
2017-10-18T04:10:10.581Z,21.90
2017-10-18T04:11:10.571Z,19.20
2017-10-18T04:12:10.565Z,21.10
2017-10-18T04:13:10.564Z,19.40
2017-10-18T04:14:10.558Z,20.20
2017-10-18T04:15:10.551Z,18.20
2017-10-18T04:16:10.545Z,18.50
2017-10-18T04:17:10.536Z,19.50
2017-10-18T04:18:10.541Z,17.60
2017-10-18T04:19:10.530Z,21.60
2017-10-18T04:20:10.530Z,18.90
2017-10-18T04:21:10.517Z,17.60
2017-10-18T04:22:10.509Z,17.40
2017-10-18T04:23:10.540Z,18.80
2017-10-18T04:24:10.504Z,16.80
2017-10-18T04:25:10.492Z,17.10
2017-10-18T04:26:10.487Z,16.60
2017-10-18T04:27:10.499Z,15.70
2017-10-18T04:28:10.474Z,14.70
2017-10-18T04:29:10.468Z,15.20
2017-10-18T04:30:10.469Z,15.40
2017-10-18T04:31:10.456Z,15.30
2017-10-18T04:32:10.452Z,15.10
2017-10-18T04:33:11.212Z,15.10
2017-10-18T04:34:10.442Z,17.10
2017-10-18T04:35:10.434Z,15.60
2017-10-18T04:36:10.429Z,16.60
2017-10-18T04:37:10.420Z,14.00
2017-10-18T04:38:10.417Z,16.30
2017-10-18T04:39:10.412Z,14.60
2017-10-18T04:40:10.404Z,14.10
2017-10-18T04:41:10.398Z,14.40
2017-10-18T04:42:10.393Z,14.60
2017-10-18T04:43:10.388Z,14.70
2017-10-18T04:44:10.380Z,13.90
2017-10-18T04:45:10.373Z,12.50
2017-10-18T04:46:10.369Z,13.00
2017-10-18T04:47:10.364Z,13.30
2017-10-18T04:48:10.357Z,15.50
2017-10-18T04:49:10.353Z,13.10
2017-10-18T04:50:10.346Z,13.90
2017-10-18T04:51:10.337Z,13.00
2017-10-18T04:52:10.335Z,13.20
2017-10-18T04:53:10.331Z,16.00
2017-10-18T04:54:10.325Z,13.40
2017-10-18T04:55:10.318Z,13.70
2017-10-18T04:56:10.309Z,14.40
2017-10-18T04:57:10.303Z,15.30
2017-10-18T04:58:10.300Z,15.20
2017-10-18T04:59:10.296Z,14.30
2017-10-18T05:00:10.289Z,15.20
2017-10-18T05:01:10.289Z,15.50
2017-10-18T05:02:10.273Z,12.60
2017-10-18T05:03:10.269Z,13.20
2017-10-18T05:04:10.263Z,13.50
2017-10-18T05:05:10.257Z,13.60
2017-10-18T05:06:10.300Z,13.50
2017-10-18T05:07:10.244Z,12.60
2017-10-18T05:08:10.238Z,12.30
2017-10-18T05:09:10.235Z,14.50
2017-10-18T05:10:10.227Z,12.40
2017-10-18T05:11:10.228Z,12.30
2017-10-18T05:12:10.215Z,12.40
2017-10-18T05:13:10.210Z,15.60
2017-10-18T05:14:10.203Z,12.90
2017-10-18T05:15:10.196Z,12.40
2017-10-18T05:16:10.191Z,12.60
2017-10-18T05:17:10.185Z,14.10
2017-10-18T05:18:10.179Z,11.70
2017-10-18T05:19:10.174Z,12.30
2017-10-18T05:20:10.168Z,11.10
2017-10-18T05:21:10.161Z,11.80
2017-10-18T05:22:10.156Z,10.90
2017-10-18T05:23:10.156Z,11.50
2017-10-18T05:24:10.146Z,11.60
2017-10-18T05:25:10.139Z,11.50
2017-10-18T05:26:10.130Z,11.40
2017-10-18T05:27:10.121Z,10.90
2017-10-18T05:28:10.118Z,12.50
2017-10-18T05:29:10.113Z,11.30
2017-10-18T05:30:10.107Z,12.40
2017-10-18T05:31:10.102Z,11.60
2017-10-18T05:32:10.093Z,12.70
2017-10-18T05:33:10.095Z,12.70
2017-10-18T05:34:10.083Z,11.70
2017-10-18T05:35:10.075Z,12.10
2017-10-18T05:36:10.070Z,11.20
2017-10-18T05:37:10.061Z,12.50
2017-10-18T05:38:10.063Z,11.30
2017-10-18T05:39:10.051Z,10.90
2017-10-18T05:40:10.046Z,11.60
2017-10-18T05:41:10.031Z,13.50
2017-10-18T05:42:10.032Z,12.00
2017-10-18T05:43:10.025Z,12.90
2017-10-18T05:44:10.018Z,12.60
2017-10-18T05:45:10.014Z,12.50
2017-10-18T05:46:10.006Z,14.50
2017-10-18T05:47:09.998Z,14.30
2017-10-18T05:48:09.995Z,12.60
2017-10-18T05:49:09.987Z,11.90
2017-10-18T05:50:09.985Z,12.30
2017-10-18T05:51:09.976Z,11.70
2017-10-18T05:52:09.969Z,12.50
2017-10-18T05:53:09.965Z,10.90
2017-10-18T05:54:09.958Z,10.90
2017-10-18T05:55:09.954Z,10.90
2017-10-18T05:56:09.945Z,12.50
2017-10-18T05:57:09.939Z,13.40
2017-10-18T05:58:09.931Z,11.10
2017-10-18T05:59:09.926Z,12.50
2017-10-18T06:00:09.921Z,12.10
2017-10-18T06:01:09.912Z,12.00
2017-10-18T06:02:09.906Z,10.90
2017-10-18T06:03:09.900Z,11.40
2017-10-18T06:04:09.899Z,11.10
2017-10-18T06:05:10.733Z,12.10
2017-10-18T06:06:09.885Z,12.00
2017-10-18T06:07:09.872Z,12.30
2017-10-18T06:08:09.868Z,11.40
2017-10-18T06:09:09.867Z,11.10
2017-10-18T06:10:10.740Z,11.40
2017-10-18T06:11:09.850Z,11.80
2017-10-18T06:12:09.846Z,11.40
2017-10-18T06:13:09.838Z,12.20
2017-10-18T06:14:09.834Z,12.20
2017-10-18T06:15:09.827Z,11.90
2017-10-18T06:16:09.819Z,12.70
2017-10-18T06:17:09.814Z,12.80
2017-10-18T06:18:09.808Z,12.30
2017-10-18T06:19:09.825Z,12.90
2017-10-18T06:20:09.795Z,12.50
2017-10-18T06:21:09.790Z,10.50
2017-10-18T06:22:09.786Z,12.60
2017-10-18T06:23:09.778Z,12.50
2017-10-18T06:24:09.772Z,12.80
2017-10-18T06:25:09.765Z,15.10
2017-10-18T06:26:09.756Z,13.70
2017-10-18T06:27:09.755Z,13.20
2017-10-18T06:28:09.747Z,12.80
2017-10-18T06:29:09.739Z,12.60
2017-10-18T06:30:09.734Z,13.20
2017-10-18T06:31:09.726Z,13.20
2017-10-18T06:32:09.721Z,12.90
2017-10-18T06:33:09.715Z,12.70
2017-10-18T06:34:09.710Z,12.60
2017-10-18T06:35:09.705Z,13.00
2017-10-18T06:36:09.694Z,15.70
2017-10-18T06:37:09.695Z,13.90
2017-10-18T06:38:09.686Z,13.90
2017-10-18T06:39:09.681Z,13.90
2017-10-18T06:40:09.669Z,13.00
2017-10-18T06:41:09.663Z,12.90
2017-10-18T06:42:09.661Z,12.80
2017-10-18T06:43:09.653Z,12.60
2017-10-18T06:44:09.657Z,12.10
2017-10-18T06:45:09.642Z,12.40
2017-10-18T06:46:09.632Z,13.80
2017-10-18T06:47:09.627Z,14.00
2017-10-18T06:48:09.622Z,14.90
2017-10-18T06:49:09.617Z,16.20
2017-10-18T06:50:09.609Z,15.40
2017-10-18T06:51:09.612Z,15.50
2017-10-18T06:52:09.598Z,15.60
2017-10-18T06:53:09.591Z,15.30
2017-10-18T06:54:09.586Z,19.20
2017-10-18T06:55:09.579Z,17.30
2017-10-18T06:56:09.583Z,17.00
2017-10-18T06:57:09.571Z,18.10
2017-10-18T06:58:09.561Z,17.20
2017-10-18T06:59:09.557Z,18.50
2017-10-18T07:00:09.554Z,16.70
2017-10-18T07:01:09.546Z,19.10
2017-10-18T07:02:09.539Z,16.70
2017-10-18T07:03:09.531Z,16.20
2017-10-18T07:04:09.528Z,15.20
2017-10-18T07:05:09.520Z,14.90
2017-10-18T07:06:09.520Z,14.10
2017-10-18T07:07:09.508Z,13.90
2017-10-18T07:08:09.501Z,16.00
2017-10-18T07:09:09.497Z,16.00
2017-10-18T07:10:09.490Z,15.50
2017-10-18T07:11:09.482Z,13.80
2017-10-18T07:12:09.478Z,14.40
2017-10-18T07:13:09.472Z,14.90
2017-10-18T07:14:09.468Z,14.70
2017-10-18T07:15:09.463Z,17.30
2017-10-18T07:16:09.454Z,17.00
2017-10-18T07:17:09.447Z,16.40
2017-10-18T07:18:09.441Z,15.50
2017-10-18T07:19:09.434Z,16.20
2017-10-18T07:20:09.422Z,16.20
2017-10-18T07:21:09.423Z,15.10
2017-10-18T07:22:09.422Z,16.50
2017-10-18T07:23:09.417Z,16.20
2017-10-18T07:24:09.418Z,13.90
2017-10-18T07:25:09.406Z,17.50
2017-10-18T07:26:09.399Z,15.50
2017-10-18T07:27:09.393Z,16.10
2017-10-18T07:28:09.397Z,15.70
2017-10-18T07:29:09.378Z,16.70
2017-10-18T07:30:09.362Z,17.90
2017-10-18T07:31:09.366Z,17.50
2017-10-18T07:32:09.361Z,16.60
2017-10-18T07:33:09.356Z,16.00
2017-10-18T07:34:09.355Z,16.00
2017-10-18T07:35:09.348Z,15.40
2017-10-18T07:36:09.340Z,16.30
2017-10-18T07:37:09.333Z,17.20
2017-10-18T07:38:09.335Z,16.20
2017-10-18T07:39:09.324Z,18.10
2017-10-18T07:40:09.317Z,18.90
2017-10-18T07:41:09.311Z,20.60
2017-10-18T07:42:09.323Z,18.40
2017-10-18T07:43:09.317Z,18.50
2017-10-18T07:44:09.301Z,18.30
2017-10-18T07:45:09.304Z,19.70
2017-10-18T07:46:09.290Z,17.80
2017-10-18T07:47:09.301Z,19.60
2017-10-18T07:48:09.278Z,18.60
2017-10-18T07:49:09.262Z,20.40
2017-10-18T07:50:09.263Z,19.90
2017-10-18T07:51:09.262Z,24.30
2017-10-18T07:52:09.263Z,19.00
2017-10-18T07:53:09.251Z,22.00
2017-10-18T07:54:09.247Z,22.10
2017-10-18T07:55:09.239Z,22.60
2017-10-18T07:56:09.238Z,23.50
2017-10-18T07:57:09.230Z,22.70
2017-10-18T07:58:09.235Z,21.60
2017-10-18T07:59:09.220Z,20.70
2017-10-18T08:00:09.214Z,22.20
2017-10-18T08:01:09.215Z,22.50
2017-10-18T08:02:09.202Z,24.10
2017-10-18T08:03:09.198Z,22.10
2017-10-18T08:04:09.193Z,21.90
2017-10-18T08:05:09.186Z,23.00
2017-10-18T08:06:09.201Z,24.10
2017-10-18T08:07:09.177Z,24.80
2017-10-18T08:08:09.172Z,24.10
2017-10-18T08:09:09.168Z,25.70
2017-10-18T08:10:09.162Z,23.10
2017-10-18T08:11:09.152Z,24.10
2017-10-18T08:12:09.152Z,24.80
2017-10-18T08:13:09.147Z,29.20
2017-10-18T08:14:09.141Z,28.00
2017-10-18T08:15:09.136Z,27.10
2017-10-18T08:16:09.131Z,28.80
2017-10-18T08:17:09.128Z,27.90
2017-10-18T08:18:09.123Z,26.60
2017-10-18T08:19:09.115Z,29.70
2017-10-18T08:20:09.108Z,28.60
2017-10-18T08:21:09.106Z,27.40
2017-10-18T08:22:09.101Z,29.70
2017-10-18T08:23:09.100Z,27.80
2017-10-18T08:24:09.091Z,26.40
2017-10-18T08:25:09.094Z,28.20
2017-10-18T08:26:09.083Z,27.50
2017-10-18T08:27:09.075Z,27.30
2017-10-18T08:28:09.074Z,28.60
2017-10-18T08:29:09.067Z,28.60
2017-10-18T08:30:09.060Z,30.20
2017-10-18T08:31:09.055Z,28.60
2017-10-18T08:32:09.051Z,30.50
2017-10-18T08:33:09.047Z,32.40
2017-10-18T08:34:09.040Z,28.10
2017-10-18T08:35:09.035Z,30.40
2017-10-18T08:36:09.032Z,29.20
2017-10-18T08:37:09.030Z,31.00
2017-10-18T08:38:09.022Z,30.90
2017-10-18T08:39:09.015Z,30.50
2017-10-18T08:40:09.009Z,31.80
2017-10-18T08:41:09.007Z,33.00
2017-10-18T08:42:09.003Z,32.50
2017-10-18T08:43:08.993Z,33.60
2017-10-18T08:44:09.005Z,32.50
2017-10-18T08:45:08.985Z,32.10
2017-10-18T08:46:08.984Z,31.10
2017-10-18T08:47:08.978Z,31.70
2017-10-18T08:48:08.988Z,33.90
2017-10-18T08:49:09.885Z,33.50
2017-10-18T08:50:08.961Z,31.30
2017-10-18T08:51:08.960Z,31.30
2017-10-18T08:52:08.954Z,34.40
2017-10-18T08:53:08.950Z,34.90
2017-10-18T08:54:08.942Z,35.50
2017-10-18T08:55:08.931Z,35.50
2017-10-18T08:56:08.933Z,34.10
2017-10-18T08:57:08.928Z,31.90
2017-10-18T08:58:08.929Z,34.10
2017-10-18T08:59:08.918Z,36.80
2017-10-18T09:00:08.917Z,36.10
2017-10-18T09:01:08.911Z,35.80
2017-10-18T09:02:08.906Z,35.20
2017-10-18T09:03:08.899Z,36.30
2017-10-18T09:04:08.899Z,37.90
2017-10-18T09:05:08.896Z,38.40
2017-10-18T09:06:08.888Z,38.50
2017-10-18T09:07:08.882Z,36.10
2017-10-18T09:08:08.874Z,37.90
2017-10-18T09:09:08.872Z,36.90
2017-10-18T09:10:08.869Z,38.40
2017-10-18T09:11:08.862Z,38.10
2017-10-18T09:12:08.859Z,37.40
2017-10-18T09:13:08.854Z,37.40
2017-10-18T09:14:08.852Z,34.60
2017-10-18T09:15:08.845Z,38.10
2017-10-18T09:16:08.846Z,37.70
2017-10-18T09:17:08.837Z,36.80
2017-10-18T09:18:08.838Z,36.10
2017-10-18T09:19:08.831Z,39.20
2017-10-18T09:20:08.824Z,37.90
2017-10-18T09:21:08.818Z,36.40
2017-10-18T09:22:08.814Z,33.80
2017-10-18T09:23:08.810Z,33.10
2017-10-18T09:24:08.806Z,35.40
2017-10-18T09:25:08.799Z,34.30
2017-10-18T09:26:08.797Z,36.30
2017-10-18T09:27:08.822Z,37.80
2017-10-18T09:28:08.785Z,34.50
2017-10-18T09:29:08.784Z,39.50
2017-10-18T09:30:08.784Z,40.30
2017-10-18T09:31:08.775Z,40.30
2017-10-18T09:32:08.773Z,41.90
2017-10-18T09:33:08.770Z,40.60
2017-10-18T09:34:08.769Z,39.80
2017-10-18T09:35:08.760Z,39.70
2017-10-18T09:36:08.752Z,38.40
2017-10-18T09:37:08.751Z,39.70
2017-10-18T09:38:08.746Z,42.00
2017-10-18T09:39:08.740Z,41.80
2017-10-18T09:40:08.737Z,40.80
2017-10-18T09:41:08.739Z,42.90
2017-10-18T09:42:08.728Z,46.90
2017-10-18T09:43:08.725Z,44.80
2017-10-18T09:44:08.723Z,43.70
2017-10-18T09:45:08.719Z,44.70
2017-10-18T09:46:08.713Z,43.30
2017-10-18T09:47:08.707Z,43.20
2017-10-18T09:48:08.704Z,43.70
2017-10-18T09:49:08.701Z,44.10
2017-10-18T09:50:08.696Z,43.10
2017-10-18T09:51:08.692Z,45.40
2017-10-18T09:52:08.687Z,44.00
2017-10-18T09:53:08.685Z,44.20
2017-10-18T09:54:08.682Z,44.50
2017-10-18T09:55:08.678Z,43.00
2017-10-18T09:56:08.674Z,45.00
2017-10-18T09:57:08.670Z,45.80
2017-10-18T09:58:08.666Z,42.10
2017-10-18T09:59:08.657Z,43.30
2017-10-18T10:00:08.646Z,43.10
2017-10-18T10:01:08.662Z,44.00
2017-10-18T10:02:08.648Z,42.00
2017-10-18T10:03:08.644Z,40.10
2017-10-18T10:04:08.637Z,39.30
2017-10-18T10:05:08.630Z,41.50
2017-10-18T10:06:08.633Z,41.20
2017-10-18T10:07:08.623Z,41.00
2017-10-18T10:08:08.618Z,42.10
2017-10-18T10:09:08.614Z,41.40
2017-10-18T10:10:08.613Z,44.00
2017-10-18T10:11:08.609Z,40.60
2017-10-18T10:12:08.604Z,43.00
2017-10-18T10:13:08.600Z,43.70
2017-10-18T10:14:08.594Z,43.40
2017-10-18T10:15:08.593Z,42.60
2017-10-18T10:16:08.586Z,43.20
2017-10-18T10:17:08.584Z,45.30
2017-10-18T10:18:08.577Z,46.40
2017-10-18T10:19:08.575Z,44.60
2017-10-18T10:20:08.571Z,43.70
2017-10-18T10:21:08.568Z,41.50
2017-10-18T10:22:08.563Z,44.40
2017-10-18T10:23:08.563Z,46.00
2017-10-18T10:24:08.555Z,44.40
2017-10-18T10:25:08.550Z,42.40
2017-10-18T10:26:08.549Z,40.20
2017-10-18T10:27:08.547Z,40.50
2017-10-18T10:28:08.540Z,42.20
2017-10-18T10:29:08.530Z,40.60
2017-10-18T10:30:08.532Z,39.40
2017-10-18T10:31:08.526Z,40.20
2017-10-18T10:32:08.523Z,42.30
2017-10-18T10:33:08.518Z,39.90
2017-10-18T10:34:08.512Z,41.60
2017-10-18T10:35:08.509Z,40.70
2017-10-18T10:36:08.507Z,38.90
2017-10-18T10:37:08.501Z,41.00
2017-10-18T10:38:08.498Z,41.80
2017-10-18T10:39:08.494Z,39.50
2017-10-18T10:40:08.491Z,39.30
2017-10-18T10:41:08.485Z,37.90
2017-10-18T10:42:08.483Z,37.20
2017-10-18T10:43:08.487Z,36.10
2017-10-18T10:44:08.476Z,36.70
2017-10-18T10:45:08.478Z,37.40
2017-10-18T10:46:08.469Z,36.00
2017-10-18T10:47:08.462Z,34.00
2017-10-18T10:48:08.458Z,35.00
2017-10-18T10:49:08.456Z,38.10
2017-10-18T10:50:08.452Z,34.30
2017-10-18T10:51:08.447Z,33.40
2017-10-18T10:52:08.449Z,33.60
2017-10-18T10:53:08.443Z,36.40
2017-10-18T10:54:08.439Z,36.70
2017-10-18T10:55:08.438Z,35.50
2017-10-18T10:56:08.432Z,34.70
2017-10-18T10:57:08.427Z,37.60
2017-10-18T10:58:08.426Z,38.20
2017-10-18T10:59:08.422Z,37.80
2017-10-18T11:00:08.418Z,35.20
2017-10-18T11:01:08.415Z,36.20
2017-10-18T11:02:08.413Z,35.20
2017-10-18T11:03:08.412Z,35.20
2017-10-18T11:04:08.410Z,33.50
2017-10-18T11:05:08.407Z,33.30
2017-10-18T11:06:08.407Z,31.00
2017-10-18T11:07:08.395Z,31.80
2017-10-18T11:08:08.391Z,34.50
2017-10-18T11:09:08.388Z,33.00
2017-10-18T11:10:08.387Z,31.30
2017-10-18T11:11:08.387Z,30.50
2017-10-18T11:12:08.384Z,30.50
2017-10-18T11:13:08.380Z,27.30
2017-10-18T11:14:08.379Z,28.50
2017-10-18T11:15:08.378Z,28.30
2017-10-18T11:16:08.377Z,28.20
2017-10-18T11:17:08.371Z,30.00
2017-10-18T11:18:08.369Z,27.40
2017-10-18T11:19:08.393Z,26.40
2017-10-18T11:20:08.367Z,26.00
2017-10-18T11:21:08.366Z,26.20
2017-10-18T11:22:08.371Z,26.20
2017-10-18T11:23:08.364Z,25.70
2017-10-18T11:24:08.360Z,26.80
2017-10-18T11:25:08.366Z,26.30
2017-10-18T11:26:08.365Z,24.10
2017-10-18T11:27:08.360Z,24.60
2017-10-18T11:28:08.358Z,24.50
2017-10-18T11:29:08.367Z,24.20
2017-10-18T11:30:08.354Z,25.20
2017-10-18T11:31:08.360Z,26.00
2017-10-18T11:32:08.350Z,25.20
2017-10-18T11:33:08.353Z,23.70
2017-10-18T11:34:08.355Z,24.90
2017-10-18T11:35:08.356Z,25.40
2017-10-18T11:36:08.356Z,24.30
2017-10-18T11:37:08.351Z,22.90
2017-10-18T11:38:08.369Z,24.90
2017-10-18T11:39:08.350Z,24.50
2017-10-18T11:40:08.354Z,25.40
2017-10-18T11:41:08.353Z,22.90
2017-10-18T11:42:08.351Z,22.80
2017-10-18T11:43:08.356Z,19.40
2017-10-18T11:44:08.355Z,22.30
2017-10-18T11:45:08.353Z,22.90
2017-10-18T11:46:08.363Z,20.90
2017-10-18T11:47:08.354Z,23.00
2017-10-18T11:48:08.352Z,21.90
2017-10-18T11:49:08.354Z,22.60
2017-10-18T11:50:08.359Z,22.00
2017-10-18T11:51:08.372Z,21.30
2017-10-18T11:52:08.353Z,21.20
2017-10-18T11:53:08.353Z,20.50
2017-10-18T11:54:08.353Z,22.10
2017-10-18T11:55:08.349Z,20.00
2017-10-18T11:56:08.354Z,21.00
2017-10-18T11:57:08.356Z,20.20
2017-10-18T11:58:08.358Z,20.20
2017-10-18T11:59:08.357Z,20.20
2017-10-18T12:00:08.356Z,18.60
2017-10-18T12:01:08.356Z,21.80
2017-10-18T12:02:08.359Z,20.90
2017-10-18T12:03:08.358Z,19.80
2017-10-18T12:04:08.367Z,19.80
2017-10-18T12:05:08.358Z,20.40
2017-10-18T12:06:08.362Z,20.20
2017-10-18T12:07:08.358Z,22.40
2017-10-18T12:08:08.360Z,20.80
2017-10-18T12:09:08.364Z,19.90
2017-10-18T12:10:08.363Z,19.90
2017-10-18T12:11:08.361Z,20.30
2017-10-18T12:12:08.357Z,19.30
2017-10-18T12:13:08.361Z,21.10
2017-10-18T12:14:08.363Z,20.20
2017-10-18T12:15:08.382Z,18.50
2017-10-18T12:16:08.362Z,19.30
2017-10-18T12:17:08.361Z,18.50
2017-10-18T12:18:08.363Z,18.50
2017-10-18T12:19:08.367Z,18.80
2017-10-18T12:20:08.366Z,17.80
2017-10-18T12:21:08.368Z,18.90
2017-10-18T12:22:08.367Z,18.70
2017-10-18T12:23:08.362Z,19.20
2017-10-18T12:24:08.366Z,19.60
2017-10-18T12:25:08.365Z,18.00
2017-10-18T12:26:08.364Z,19.60
2017-10-18T12:27:08.386Z,19.50
2017-10-18T12:28:08.363Z,19.60
2017-10-18T12:29:08.362Z,19.50
2017-10-18T12:30:08.362Z,18.30
2017-10-18T12:31:08.363Z,18.50
2017-10-18T12:32:08.360Z,18.60
2017-10-18T12:33:08.361Z,19.00
2017-10-18T12:34:08.364Z,20.70
2017-10-18T12:35:08.368Z,19.30
2017-10-18T12:36:08.364Z,18.90
2017-10-18T12:37:08.361Z,18.90
2017-10-18T12:38:08.363Z,19.00
2017-10-18T12:39:08.361Z,18.50
2017-10-18T12:40:08.364Z,19.30
2017-10-18T12:41:08.359Z,20.80
2017-10-18T12:42:08.359Z,21.50
2017-10-18T12:43:08.365Z,19.00
2017-10-18T12:44:08.361Z,19.40
2017-10-18T12:45:08.366Z,20.20
2017-10-18T12:46:08.362Z,20.20
2017-10-18T12:47:08.358Z,19.20
2017-10-18T12:48:08.356Z,19.40
2017-10-18T12:49:08.360Z,20.00
2017-10-18T12:50:08.360Z,19.80
2017-10-18T12:51:08.364Z,19.20
2017-10-18T12:52:08.355Z,19.00